Avenal, California
Current Conditions -  °F | °C
As of 5:56 PM on Wednesday 22 Oct 2014 (Local Time) from KNLC Reporting Station
Broken Clouds Broken Clouds  
Wind Chill: 72°   Ceiling: 25000
Heat Index: 72°   Visibility: 10mi
Dew Point: 38°   Wind: 9mph
Humidity: 29%   Direction: 340°NNW
Pressure: 30"   Gusts: NA
Location:  36°N, 120.13°W
Report Text: KNLC 230056Z 34008KT 10SM FEW150 FEW200 BKN250 22/03 A3000 RMK AO2 SLP160 RH/30 T02220033 $
Loading
Personal Weather Stations






























Interactive Weather Map New forecast layout! Learn more

10-Day Weather Forecast

Advertisements
Track Severe Weather on mobile